Time;durP1;ratioP1;P1;durP2;ratioP2;P2;SDS_P1;SDS_P2;PMS_P1;PMS_P2;Temp;Humidity;BMP_temperature;BMP_pressure;BME280_temperature;BME280_humidity;BME280_pressure;Samples;Min_cycle;Max_cycle;Signal;HPM_P1;HPM_P2
2023/07/28 00:00:26;;;;;;;16.38;5.35;;;;;;;16.88;100.00;100352.00;5031018;28;20091;-78
2023/07/28 00:02:53;;;;;;;16.52;6.15;;;;;;;16.89;100.00;100350.97;5027515;28;20029;-78
2023/07/28 00:05:18;;;;;;;17.13;6.13;;;;;;;16.87;100.00;100347.56;5031331;28;20029;-78
2023/07/28 00:07:43;;;;;;;17.88;5.82;;;;;;;16.87;100.00;100340.28;5032274;28;20366;-78
2023/07/28 00:10:09;;;;;;;16.90;5.40;;;;;;;16.87;100.00;100337.59;5031252;28;20083;-78
2023/07/28 00:12:34;;;;;;;17.58;6.10;;;;;;;16.88;100.00;100338.41;5032314;28;20358;-78
2023/07/28 00:15:00;;;;;;;16.38;5.45;;;;;;;16.89;100.00;100337.41;5030773;28;20045;-78
2023/07/28 00:17:25;;;;;;;16.08;5.40;;;;;;;16.89;100.00;100340.97;5032536;28;20135;-78
2023/07/28 00:19:51;;;;;;;16.52;6.00;;;;;;;16.88;100.00;100341.13;5029433;28;20366;-78
2023/07/28 00:22:16;;;;;;;16.52;5.95;;;;;;;16.88;100.00;100339.28;5026954;28;20017;-78
2023/07/28 00:24:41;;;;;;;16.95;6.18;;;;;;;16.89;100.00;100335.53;5031791;28;20037;-78
2023/07/28 00:27:07;;;;;;;15.68;6.05;;;;;;;16.90;100.00;100330.97;5031870;28;20033;-78
2023/07/28 00:29:32;;;;;;;16.38;5.95;;;;;;;16.90;100.00;100336.41;5030876;28;20029;-78
2023/07/28 00:31:57;;;;;;;15.50;5.80;;;;;;;16.90;100.00;100331.81;5031257;28;20033;-78
2023/07/28 00:34:23;;;;;;;16.50;6.18;;;;;;;16.90;100.00;100341.84;5025927;28;20443;-78
2023/07/28 00:36:48;;;;;;;16.15;5.60;;;;;;;16.89;100.00;100340.97;5023051;28;20040;-78
2023/07/28 00:39:13;;;;;;;14.00;5.50;;;;;;;16.90;100.00;100337.25;5045716;28;20033;-78
2023/07/28 00:41:39;;;;;;;18.05;6.43;;;;;;;16.90;100.00;100334.53;5031963;28;20029;-78
2023/07/28 00:44:04;;;;;;;16.90;6.32;;;;;;;16.91;100.00;100338.09;5031104;28;20456;-78
2023/07/28 00:46:30;;;;;;;15.82;6.18;;;;;;;16.90;100.00;100330.97;5031252;28;20013;-78
2023/07/28 00:48:56;;;;;;;18.95;6.85;;;;;;;16.91;100.00;100335.38;5032126;28;20473;-78
2023/07/28 00:51:21;;;;;;;17.45;6.63;;;;;;;16.91;100.00;100333.53;5031442;28;20041;-78
2023/07/28 00:53:47;;;;;;;18.30;6.93;;;;;;;16.91;100.00;100330.81;5025747;28;20018;-78
2023/07/28 00:56:13;;;;;;;17.30;6.60;;;;;;;16.91;100.00;100325.38;5032431;28;20061;-78
2023/07/28 00:58:39;;;;;;;18.70;7.03;;;;;;;16.90;100.00;100318.25;5032549;28;20037;-78
2023/07/28 01:01:04;;;;;;;17.30;6.70;;;;;;;16.90;100.00;100323.66;5030771;28;20026;-78
2023/07/28 01:03:31;;;;;;;18.55;7.22;;;;;;;16.91;100.00;100327.22;5030526;28;20021;-78
2023/07/28 01:06:25;;;;;;;19.05;6.68;;;;;;;16.90;100.00;100329.09;5030394;28;20097;-78
2023/07/28 01:09:01;;;;;;;18.73;6.85;;;;;;;16.89;100.00;100334.69;5030559;28;20048;-78
2023/07/28 01:11:26;;;;;;;18.05;6.85;;;;;;;16.89;100.00;100331.97;5025669;28;20017;-78
2023/07/28 01:13:52;;;;;;;17.48;6.75;;;;;;;16.90;100.00;100344.53;5032611;28;20033;-78
2023/07/28 01:16:17;;;;;;;18.08;6.97;;;;;;;16.91;100.00;100348.94;5031079;28;20037;-78
2023/07/28 01:18:43;;;;;;;18.98;6.88;;;;;;;16.88;100.00;100341.13;5031683;28;20056;-78
2023/07/28 01:21:16;;;;;;;17.75;6.70;;;;;;;16.89;100.00;100335.53;5031698;28;20026;-78
2023/07/28 01:24:08;;;;;;;18.65;7.25;;;;;;;16.91;100.00;100340.78;5030820;28;20034;-78
2023/07/28 01:26:39;;;;;;;18.08;6.85;;;;;;;16.91;100.00;100338.09;5022967;28;20030;-78
2023/07/28 01:29:05;;;;;;;19.45;7.30;;;;;;;16.91;100.00;100340.78;5031165;28;20044;-78
2023/07/28 01:31:31;;;;;;;20.83;8.25;;;;;;;16.91;100.00;100343.50;5031008;28;20476;-78
2023/07/28 01:33:56;;;;;;;19.00;7.05;;;;;;;16.91;100.00;100346.22;5030637;28;20029;-78
2023/07/28 01:36:22;;;;;;;20.25;8.07;;;;;;;16.91;100.00;100338.09;5022133;28;20025;-78
2023/07/28 01:38:47;;;;;;;19.38;6.88;;;;;;;16.92;100.00;100339.78;5035342;28;20550;-78
2023/07/28 01:41:12;;;;;;;19.00;7.13;;;;;;;16.91;100.00;100340.78;5036591;28;20037;-78
2023/07/28 01:43:38;;;;;;;18.42;7.93;;;;;;;16.92;100.00;100339.78;5036406;28;20025;-78
2023/07/28 01:46:03;;;;;;;21.50;7.35;;;;;;;16.93;100.00;100339.63;5034330;28;20148;-78
2023/07/28 01:48:28;;;;;;;19.13;7.60;;;;;;;16.91;100.00;100349.81;5033805;28;20021;-78
2023/07/28 01:50:54;;;;;;;19.85;7.88;;;;;;;16.91;100.00;100348.94;5036202;28;20029;-78
2023/07/28 01:53:19;;;;;;;20.08;7.53;;;;;;;16.90;100.00;100342.66;5030203;28;20057;-78
2023/07/28 01:55:45;;;;;;;20.98;7.10;;;;;;;16.92;100.00;100350.66;5035358;28;20025;-78
2023/07/28 01:58:10;;;;;;;20.88;8.65;;;;;;;16.91;100.00;100338.94;5034336;28;20110;-78
2023/07/28 02:00:36;;;;;;;20.48;8.18;;;;;;;16.91;100.00;100344.38;5035622;28;20485;-78
2023/07/28 02:03:03;;;;;;;21.30;8.00;;;;;;;16.91;100.00;100346.22;5035103;28;20358;-78
2023/07/28 02:05:28;;;;;;;19.50;7.85;;;;;;;16.90;100.00;100349.97;5032547;28;20128;-78
2023/07/28 02:07:54;;;;;;;21.02;9.00;;;;;;;16.90;100.00;100347.25;5034741;28;20112;-78
2023/07/28 02:10:19;;;;;;;21.73;10.48;;;;;;;16.91;100.00;100348.94;5036170;28;20033;-78
2023/07/28 02:12:45;;;;;;;21.13;8.15;;;;;;;16.91;100.00;100343.50;5035868;28;20429;-78
2023/07/28 02:15:12;;;;;;;20.73;8.40;;;;;;;16.91;100.00;100343.50;5035005;28;20033;-78
2023/07/28 02:17:37;;;;;;;21.17;9.30;;;;;;;16.91;100.00;100349.81;5035865;28;20041;-78
2023/07/28 02:20:03;;;;;;;23.17;9.75;;;;;;;16.92;100.00;100342.50;5036717;28;20033;-78
2023/07/28 02:22:29;;;;;;;22.33;8.93;;;;;;;16.92;100.00;100345.22;5022439;28;20029;-78
2023/07/28 02:24:54;;;;;;;22.58;9.25;;;;;;;16.93;100.00;100341.50;5042961;28;20057;-78
2023/07/28 02:27:19;;;;;;;21.83;9.40;;;;;;;16.93;100.00;100345.06;5033311;28;20092;-78
2023/07/28 02:29:45;;;;;;;21.80;9.52;;;;;;;16.96;100.00;100345.75;5037425;28;20037;-78
2023/07/28 02:32:11;;;;;;;20.70;9.05;;;;;;;16.95;100.00;100347.59;5037389;28;20112;-78
2023/07/28 02:34:36;;;;;;;22.05;9.43;;;;;;;16.97;100.00;100344.72;5035243;28;20025;-78
2023/07/28 02:37:02;;;;;;;22.17;10.10;;;;;;;16.96;100.00;100348.47;5035216;28;20447;-78
2023/07/28 02:39:28;;;;;;;24.70;10.50;;;;;;;16.95;100.00;100344.88;5038179;28;20049;-78
2023/07/28 02:41:54;;;;;;;22.67;10.55;;;;;;;16.95;100.00;100342.16;5037794;28;20071;-78
2023/07/28 02:44:19;;;;;;;21.95;10.48;;;;;;;16.95;100.00;100344.88;5034560;28;20084;-78
2023/07/28 02:46:44;;;;;;;23.35;11.18;;;;;;;16.96;100.00;100352.03;5035769;28;20033;-78
2023/07/28 02:49:09;;;;;;;24.85;11.68;;;;;;;16.97;100.00;100350.16;5018618;28;20041;-78
2023/07/28 02:51:35;;;;;;;23.55;11.80;;;;;;;16.96;100.00;100352.03;5038110;28;20091;-78
2023/07/28 02:54:03;;;;;;;23.48;11.75;;;;;;;16.96;100.00;100353.91;5036206;28;20033;-78
2023/07/28 02:56:28;;;;;;;26.08;12.55;;;;;;;16.96;100.00;100357.44;5038063;28;20088;-77
2023/07/28 02:58:54;;;;;;;25.80;12.35;;;;;;;16.96;100.00;100362.88;5031958;28;20037;-78
2023/07/28 03:01:19;;;;;;;22.70;11.48;;;;;;;16.98;100.00;100362.72;5030983;28;20025;-78
2023/07/28 03:03:44;;;;;;;25.33;11.98;;;;;;;16.97;100.00;100364.59;5036828;28;20495;-77
2023/07/28 03:06:10;;;;;;;26.60;12.77;;;;;;;16.98;100.00;100366.25;5035924;28;20018;-77
2023/07/28 03:08:35;;;;;;;26.48;12.43;;;;;;;16.98;100.00;100362.72;5036047;28;20025;-78
2023/07/28 03:11:02;;;;;;;25.60;13.45;;;;;;;16.98;100.00;100360.84;5035607;28;20064;-77
2023/07/28 03:13:28;;;;;;;25.35;12.48;;;;;;;16.98;100.00;100363.53;5036945;28;20025;-78
2023/07/28 03:15:54;;;;;;;24.92;11.45;;;;;;;16.99;100.00;100367.97;5035082;28;20471;-78
2023/07/28 03:18:19;;;;;;;26.20;12.52;;;;;;;16.98;100.00;100360.84;5031650;28;20022;-77
2023/07/28 03:20:45;;;;;;;30.40;12.02;;;;;;;16.98;100.00;100368.97;5033250;28;20111;-78
2023/07/28 03:23:11;;;;;;;26.10;12.63;;;;;;;16.99;100.00;100367.13;5036254;28;20111;-77
2023/07/28 03:25:36;;;;;;;26.73;12.85;;;;;;;16.99;100.00;100367.97;5032532;28;20029;-77
2023/07/28 03:28:01;;;;;;;28.30;12.90;;;;;;;16.99;100.00;100362.53;5036371;28;20029;-78
2023/07/28 03:30:27;;;;;;;24.95;12.25;;;;;;;17.00;100.00;100377.81;5033728;28;20018;-78
2023/07/28 03:32:52;;;;;;;26.48;12.50;;;;;;;16.99;100.00;100376.13;5034810;28;20025;-77
2023/07/28 03:35:17;;;;;;;25.48;12.32;;;;;;;17.00;100.00;100375.09;5030796;28;20029;-78
2023/07/28 03:37:43;;;;;;;25.40;12.15;;;;;;;17.01;100.00;100376.78;5035834;28;20029;-78
2023/07/28 03:40:08;;;;;;;25.58;12.45;;;;;;;17.01;100.00;100381.38;5034401;28;20454;-78
2023/07/28 03:42:34;;;;;;;29.33;13.75;;;;;;;17.00;100.00;100375.09;5034925;28;20025;-77
2023/07/28 03:44:59;;;;;;;28.92;13.88;;;;;;;17.00;100.00;100385.09;5033640;28;20049;-78
2023/07/28 03:47:24;;;;;;;26.67;12.75;;;;;;;16.99;100.00;100386.97;5030030;28;20108;-78
2023/07/28 03:49:50;;;;;;;28.85;12.88;;;;;;;16.99;100.00;100397.84;5033020;28;20034;-78
2023/07/28 03:52:15;;;;;;;30.58;13.38;;;;;;;17.00;100.00;100395.97;5026432;28;20037;-77
2023/07/28 03:54:40;;;;;;;27.50;13.60;;;;;;;16.99;100.00;100400.56;5035206;28;20056;-77
2023/07/28 03:57:06;;;;;;;26.55;13.00;;;;;;;17.00;100.00;100395.97;5035430;28;20030;-78
2023/07/28 03:59:31;;;;;;;25.60;14.13;;;;;;;17.00;100.00;100401.38;5036185;28;20036;-78
2023/07/28 04:01:57;;;;;;;27.30;13.70;;;;;;;17.01;100.00;100400.38;5034828;28;20028;-77
2023/07/28 04:04:22;;;;;;;27.98;13.73;;;;;;;17.01;100.00;100398.50;5034396;28;20099;-78
2023/07/28 04:06:55;;;;;;;29.88;14.02;;;;;;;17.00;100.00;100395.97;5024563;28;20045;-78
2023/07/28 04:09:20;;;;;;;26.75;13.48;;;;;;;16.98;100.00;100404.28;5031295;28;20569;-77
2023/07/28 04:11:46;;;;;;;27.42;12.40;;;;;;;16.99;100.00;100400.56;5034362;28;20032;-78
2023/07/28 04:14:12;;;;;;;25.75;12.07;;;;;;;16.97;100.00;100404.44;5033733;28;20535;-77
2023/07/28 04:16:38;;;;;;;30.80;14.63;;;;;;;16.97;100.00;100397.16;5034156;28;20504;-77
2023/07/28 04:19:04;;;;;;;26.25;13.10;;;;;;;16.98;100.00;100398.84;5033151;28;20075;-78
2023/07/28 04:21:29;;;;;;;27.42;13.40;;;;;;;16.98;100.00;100387.97;5034433;28;20507;-77
2023/07/28 04:23:54;;;;;;;27.52;12.82;;;;;;;16.99;100.00;100386.97;5026823;28;20028;-78
2023/07/28 04:26:20;;;;;;;26.23;12.88;;;;;;;16.98;100.00;100393.41;5032711;28;20546;-77
2023/07/28 04:28:45;;;;;;;28.30;12.35;;;;;;;17.00;100.00;100402.25;5033213;28;20037;-77
2023/07/28 04:31:11;;;;;;;28.30;12.20;;;;;;;17.00;100.00;100401.38;5034420;28;20093;-77
2023/07/28 04:33:37;;;;;;;24.05;11.82;;;;;;;17.00;100.00;100399.53;5031095;28;20025;-77
2023/07/28 04:36:03;;;;;;;28.13;13.20;;;;;;;17.00;100.00;100391.41;5030384;28;20079;-78
2023/07/28 04:38:28;;;;;;;25.75;12.07;;;;;;;17.02;100.00;100400.22;5034197;28;20029;-77
2023/07/28 04:40:54;;;;;;;24.23;13.65;;;;;;;17.02;100.00;100402.94;5031487;28;20079;-78
2023/07/28 04:43:19;;;;;;;26.95;13.20;;;;;;;17.02;100.00;100399.38;5033148;28;20075;-77
2023/07/28 04:45:45;;;;;;;27.58;13.43;;;;;;;17.01;100.00;100393.06;5033161;28;20028;-77
2023/07/28 04:48:10;;;;;;;26.85;12.65;;;;;;;17.02;100.00;100392.06;5032949;28;20055;-77
2023/07/28 04:50:36;;;;;;;24.63;12.07;;;;;;;17.01;100.00;100398.50;5029445;28;20486;-77
2023/07/28 04:53:01;;;;;;;27.33;13.57;;;;;;;17.02;100.00;100394.78;5014173;28;20512;-78
2023/07/28 04:55:27;;;;;;;26.25;13.20;;;;;;;17.02;100.00;100397.50;5025172;28;20029;-78
2023/07/28 04:57:53;;;;;;;27.40;13.57;;;;;;;17.02;100.00;100399.38;5029559;28;20052;-78
2023/07/28 05:00:18;;;;;;;26.55;11.77;;;;;;;17.04;100.00;100400.91;5034698;28;20037;-78
2023/07/28 05:02:44;;;;;;;28.75;13.80;;;;;;;17.05;100.00;100399.88;5031687;28;20029;-77
2023/07/28 05:05:09;;;;;;;26.00;13.25;;;;;;;17.06;100.00;100401.59;5033090;28;20362;-78
2023/07/28 05:07:34;;;;;;;28.33;14.05;;;;;;;17.06;100.00;100398.03;5033868;28;20485;-77
2023/07/28 05:10:00;;;;;;;26.40;13.43;;;;;;;17.08;100.00;100398.69;5034014;28;20436;-78
2023/07/28 05:12:25;;;;;;;28.70;14.20;;;;;;;17.08;100.00;100404.97;5035640;28;20025;-77
2023/07/28 05:14:50;;;;;;;25.67;13.82;;;;;;;17.10;100.00;100411.09;5029665;28;20121;-77
2023/07/28 05:17:16;;;;;;;33.10;16.27;;;;;;;17.12;100.00;100422.63;5034229;28;20045;-78
2023/07/28 05:19:41;;;;;;;27.38;14.48;;;;;;;17.12;100.00;100416.38;5036517;28;20041;-78
2023/07/28 05:22:06;;;;;;;25.98;12.93;;;;;;;17.15;100.00;100417.91;5035875;28;20037;-77
2023/07/28 05:24:33;;;;;;;26.52;13.02;;;;;;;17.15;100.00;100417.91;5037759;28;20057;-78
2023/07/28 05:26:58;;;;;;;26.33;13.98;;;;;;;17.16;100.00;100422.31;5038838;28;20107;-77
2023/07/28 05:29:24;;;;;;;27.52;13.15;;;;;;;17.18;100.00;100433.88;5037725;28;20060;-78
2023/07/28 05:31:49;;;;;;;27.92;13.35;;;;;;;17.18;100.00;100442.00;5030693;28;20053;-78
2023/07/28 05:34:14;;;;;;;30.10;14.10;;;;;;;17.18;100.00;100437.41;5037228;28;20056;-77
2023/07/28 05:36:40;;;;;;;28.85;15.77;;;;;;;17.19;100.00;100443.69;5038716;28;20475;-78
2023/07/28 05:39:05;;;;;;;28.08;15.48;;;;;;;17.21;100.00;100436.25;5036056;28;20029;-78
2023/07/28 05:41:30;;;;;;;28.95;17.17;;;;;;;17.21;100.00;100439.81;5027776;28;20043;-77
2023/07/28 05:43:56;;;;;;;34.80;19.05;;;;;;;17.24;100.00;100441.34;5040382;28;20124;-77
2023/07/28 05:46:21;;;;;;;31.88;17.38;;;;;;;17.24;100.00;100452.22;5040314;28;20470;-77
2023/07/28 05:48:46;;;;;;;31.75;18.40;;;;;;;17.26;100.00;100444.72;5032897;28;20034;-77
2023/07/28 05:51:12;;;;;;;36.45;19.83;;;;;;;17.26;100.00;100445.59;5040042;28;20033;-77
2023/07/28 05:53:37;;;;;;;34.17;20.58;;;;;;;17.28;100.00;100453.59;5039983;28;20032;-77
2023/07/28 05:56:03;;;;;;;35.60;21.15;;;;;;;17.29;100.00;100452.53;5038809;28;20029;-77
2023/07/28 05:58:28;;;;;;;38.30;23.38;;;;;;;17.29;100.00;100453.41;5039344;28;20029;-77
2023/07/28 06:00:54;;;;;;;36.95;22.55;;;;;;;17.32;100.00;100454.97;5038306;28;20036;-77
2023/07/28 06:03:19;;;;;;;37.40;23.58;;;;;;;17.32;100.00;100456.81;5036680;28;20461;-77
2023/07/28 06:05:44;;;;;;;43.40;23.88;;;;;;;17.34;100.00;100450.19;5037925;28;20456;-77
2023/07/28 06:08:10;;;;;;;44.42;25.60;;;;;;;17.33;100.00;100453.91;5037225;28;20112;-77
2023/07/28 06:10:35;;;;;;;42.72;24.95;;;;;;;17.36;100.00;100460.88;5036666;28;20472;-77
2023/07/28 06:13:01;;;;;;;40.42;24.33;;;;;;;17.36;100.00;100459.00;5036160;28;20108;-78
2023/07/28 06:15:26;;;;;;;37.75;24.67;;;;;;;17.37;100.00;100463.44;5035621;28;20454;-77
2023/07/28 06:17:52;;;;;;;40.55;24.80;;;;;;;17.38;100.00;100450.69;5037244;28;20042;-77
2023/07/28 06:20:17;;;;;;;38.08;22.75;;;;;;;17.39;100.00;100453.25;5034420;28;20670;-77
2023/07/28 06:22:42;;;;;;;36.10;21.98;;;;;;;17.41;100.00;100455.78;5035471;28;20473;-77
2023/07/28 06:25:08;;;;;;;37.10;22.48;;;;;;;17.41;100.00;100456.66;5035324;28;20537;-78
2023/07/28 06:27:33;;;;;;;35.45;19.80;;;;;;;17.42;100.00;100458.38;5030765;28;20038;-78
2023/07/28 06:29:58;;;;;;;35.67;20.45;;;;;;;17.44;100.00;100461.75;5036082;28;20079;-77
2023/07/28 06:32:24;;;;;;;36.95;18.55;;;;;;;17.43;100.00;100465.47;5033300;28;20021;-77
2023/07/28 06:34:49;;;;;;;33.22;19.15;;;;;;;17.45;100.00;100465.31;5036811;28;20037;-77
2023/07/28 06:37:15;;;;;;;31.58;17.38;;;;;;;17.46;100.00;100473.28;5036902;28;20112;-78
2023/07/28 06:39:40;;;;;;;34.00;17.55;;;;;;;17.49;100.00;100471.28;5036547;28;20484;-78
2023/07/28 06:42:06;;;;;;;32.03;17.35;;;;;;;17.51;100.00;100467.38;5022187;28;20037;-78
2023/07/28 06:44:32;;;;;;;31.92;16.17;;;;;;;17.52;100.00;100477.22;5034146;28;20037;-77
2023/07/28 06:46:57;;;;;;;29.55;16.25;;;;;;;17.52;100.00;100473.66;5034918;28;20037;-77
2023/07/28 06:49:23;;;;;;;32.50;14.77;;;;;;;17.54;100.00;100472.47;5033431;28;20488;-78
2023/07/28 06:51:48;;;;;;;30.17;15.48;;;;;;;17.55;100.00;100481.47;5028472;28;20063;-77
2023/07/28 06:54:13;;;;;;;29.48;15.10;;;;;;;17.57;100.00;100479.44;5033231;28;20024;-77
2023/07/28 06:56:39;;;;;;;29.33;14.15;;;;;;;17.57;100.00;100480.28;5035048;28;20033;-78
2023/07/28 06:59:06;;;;;;;31.25;15.63;;;;;;;17.60;100.00;100481.81;5038219;28;20036;-79
2023/07/28 07:01:32;;;;;;;28.42;14.88;;;;;;;17.61;100.00;100483.50;5030619;28;20087;-78
2023/07/28 07:03:58;;;;;;;28.58;15.10;;;;;;;17.60;100.00;100485.41;5033143;28;20109;-80
2023/07/28 07:06:23;;;;;;;28.77;13.65;;;;;;;17.62;100.00;100491.50;5032874;28;20041;-63
2023/07/28 07:08:48;;;;;;;30.73;15.65;;;;;;;17.64;100.00;100499.47;5031189;28;20473;-64
2023/07/28 07:11:14;;;;;;;26.23;13.45;;;;;;;17.66;100.00;100489.31;5035246;28;20473;-62
2023/07/28 07:13:40;;;;;;;27.52;13.52;;;;;;;17.70;100.00;100495.25;5037546;28;20025;-64
2023/07/28 07:16:06;;;;;;;26.38;12.07;;;;;;;17.69;100.00;100499.84;5034498;28;20375;-76
2023/07/28 07:18:32;;;;;;;30.35;14.55;;;;;;;17.72;100.00;100499.50;5034834;28;20481;-78
2023/07/28 07:21:02;;;;;;;26.38;12.85;;;;;;;17.74;100.00;100507.50;5026556;28;20039;-75
2023/07/28 07:23:27;;;;;;;27.98;13.80;;;;;;;17.76;100.00;100505.44;5030870;28;20428;-75
2023/07/28 07:25:53;;;;;;;25.17;12.38;;;;;;;17.78;100.00;100509.69;5032882;28;20032;-69
2023/07/28 07:28:19;;;;;;;24.90;12.20;;;;;;;17.79;100.00;100505.13;5034697;28;20022;-69
2023/07/28 07:30:44;;;;;;;25.38;11.63;;;;;;;17.82;100.00;100511.06;5031986;28;20033;-69
2023/07/28 07:33:10;;;;;;;23.98;11.30;;;;;;;17.82;100.00;100505.63;5035193;28;20048;-76
2023/07/28 07:35:37;;;;;;;24.83;11.43;;;;;;;17.85;100.00;100519.88;5039467;28;20033;-76
2023/07/28 07:38:04;;;;;;;25.90;10.80;;;;;;;17.86;100.00;100516.16;5056421;28;20031;-78
2023/07/28 07:40:29;;;;;;;23.27;10.13;;;;;;;17.87;100.00;100515.16;5048046;28;20106;-79
2023/07/28 07:42:56;;;;;;;24.90;10.30;;;;;;;17.92;100.00;100520.94;5038397;28;20080;-82
2023/07/28 07:45:21;;;;;;;25.15;10.35;;;;;;;17.95;100.00;100523.34;5040086;28;20018;-82
2023/07/28 07:47:46;;;;;;;22.90;8.65;;;;;;;17.97;100.00;100524.03;5049996;28;20084;-76
2023/07/28 07:50:13;;;;;;;20.65;8.82;;;;;;;17.96;100.00;100527.75;5043695;28;20092;-62
2023/07/28 07:52:39;;;;;;;25.33;9.50;;;;;;;17.99;100.00;100530.13;5035006;28;20073;-64
2023/07/28 07:55:04;;;;;;;22.58;10.75;;;;;;;17.98;100.00;100529.28;5032681;28;20112;-63
2023/07/28 07:57:30;;;;;;;23.42;10.18;;;;;;;18.01;100.00;100525.41;5035754;28;20187;-68
2023/07/28 07:59:57;;;;;;;21.80;9.68;;;;;;;18.03;100.00;100533.38;5035470;28;20039;-61
2023/07/28 08:02:23;;;;;;;23.63;9.10;;;;;;;18.04;100.00;100524.19;5031801;28;20048;-65
2023/07/28 08:04:48;;;;;;;23.55;9.25;;;;;;;18.02;100.00;100527.06;5037632;28;20079;-64
2023/07/28 08:07:15;;;;;;;21.63;8.30;;;;;;;18.07;100.00;100532.88;5039308;28;20052;-63
2023/07/28 08:09:41;;;;;;;22.65;9.23;;;;;;;18.08;100.00;100531.88;5040831;28;20029;-62
2023/07/28 08:12:07;;;;;;;22.83;10.63;;;;;;;18.07;100.00;100524.72;5033893;28;20124;-64
2023/07/28 08:14:33;;;;;;;26.52;12.27;;;;;;;18.10;100.00;100529.81;5035068;28;20075;-63
2023/07/28 08:16:58;;;;;;;25.13;12.80;;;;;;;18.13;100.00;100534.91;5030930;28;20072;-67
2023/07/28 08:19:24;;;;;;;24.92;11.27;;;;;;;18.14;100.00;100538.47;5033552;28;20032;-67
2023/07/28 08:21:49;;;;;;;23.38;10.63;;;;;;;18.15;100.00;100551.06;5036654;28;20037;-63
2023/07/28 08:24:15;;;;;;;21.98;10.05;;;;;;;18.16;100.00;100545.44;5037356;28;20031;-64
2023/07/28 08:26:41;;;;;;;18.83;8.55;;;;;;;18.16;100.00;100550.03;5034830;28;20030;-63
2023/07/28 08:29:06;;;;;;;19.50;8.20;;;;;;;18.16;100.00;100542.72;5036231;28;20231;-60
2023/07/28 08:31:31;;;;;;;19.98;7.30;;;;;;;18.20;100.00;100555.97;5034308;28;20560;-60
2023/07/28 08:33:57;;;;;;;20.75;7.97;;;;;;;18.21;100.00;100553.09;5038384;28;20030;-60
2023/07/28 08:36:22;;;;;;;19.33;7.45;;;;;;;18.25;100.00;100546.28;5037801;28;20096;-61
2023/07/28 08:38:48;;;;;;;20.55;6.75;;;;;;;18.33;100.00;100554.47;5038360;28;20021;-61
2023/07/28 08:41:14;;;;;;;18.55;7.47;;;;;;;18.35;100.00;100548.84;5035991;28;20034;-77
2023/07/28 08:43:39;;;;;;;20.15;6.47;;;;;;;18.45;100.00;100548.69;5036266;28;20032;-78
2023/07/28 08:46:05;;;;;;;19.90;7.18;;;;;;;18.46;100.00;100548.50;5028166;28;20021;-76
2023/07/28 08:48:31;;;;;;;21.35;6.72;;;;;;;18.53;100.00;100556.81;5034738;28;20025;-77
2023/07/28 08:50:56;;;;;;;19.30;7.68;;;;;;;18.59;100.00;100558.00;5033010;28;20400;-77
2023/07/28 08:53:22;;;;;;;16.80;6.38;;;;;;;18.63;100.00;100559.38;5032989;28;20099;-77
2023/07/28 08:55:47;;;;;;;16.98;7.03;;;;;;;18.68;100.00;100546.94;5032116;28;20030;-77
2023/07/28 08:58:24;;;;;;;17.20;6.28;;;;;;;18.75;100.00;100549.81;5032427;28;20392;-78
2023/07/28 09:00:50;;;;;;;18.80;6.47;;;;;;;18.80;100.00;100547.44;5031848;28;20087;-78
2023/07/28 09:03:17;;;;;;;19.20;6.82;;;;;;;18.88;100.00;100562.91;5029175;28;20053;-78
2023/07/28 09:05:46;;;;;;;18.67;7.22;;;;;;;18.94;100.00;100551.31;5022251;28;20049;-78
2023/07/28 09:08:16;;;;;;;16.75;6.82;;;;;;;19.02;100.00;100551.31;5030861;28;20079;-78
2023/07/28 09:10:42;;;;;;;19.70;8.30;;;;;;;19.13;100.00;100554.69;5030056;28;20029;-78
2023/07/28 09:13:12;;;;;;;20.63;8.88;;;;;;;19.15;100.00;100561.66;5032058;28;20470;-77
2023/07/28 09:15:38;;;;;;;20.17;8.70;;;;;;;19.27;100.00;100564.84;5029933;28;20127;-77
2023/07/28 09:18:06;;;;;;;18.52;7.78;;;;;;;19.34;100.00;100559.50;5028589;28;20109;-80
2023/07/28 09:20:36;;;;;;;18.87;8.00;;;;;;;19.42;100.00;100556.75;5033851;28;20052;-76
2023/07/28 09:23:02;;;;;;;19.42;8.20;;;;;;;19.50;100.00;100559.47;5028296;28;20071;-75
2023/07/28 09:25:29;;;;;;;22.02;9.63;;;;;;;19.50;100.00;100564.03;5030896;28;20021;-76
2023/07/28 09:27:55;;;;;;;19.83;8.98;;;;;;;19.58;100.00;100572.19;5033834;28;20030;-76
2023/07/28 09:30:23;;;;;;;19.60;8.93;;;;;;;19.60;100.00;100563.84;5033542;28;20037;-76
2023/07/28 09:32:53;;;;;;;20.40;9.38;;;;;;;19.66;100.00;100568.56;5030812;28;20080;-77
2023/07/28 09:35:19;;;;;;;18.90;8.70;;;;;;;19.69;100.00;100570.94;5029015;28;20025;-76
2023/07/28 09:37:48;;;;;;;20.02;8.50;;;;;;;19.72;100.00;100567.84;5030624;28;20055;-76
2023/07/28 09:40:16;;;;;;;19.52;8.68;;;;;;;19.76;100.00;100566.47;5032303;28;20092;-76
2023/07/28 09:42:44;;;;;;;19.33;7.50;;;;;;;19.79;100.00;100568.00;5032466;28;20029;-77
2023/07/28 09:45:10;;;;;;;18.80;8.25;;;;;;;19.83;100.00;100570.19;5037378;28;20076;-78
2023/07/28 09:47:37;;;;;;;18.80;7.95;;;;;;;19.89;100.00;100583.09;5036917;28;20088;-79
2023/07/28 09:50:05;;;;;;;18.75;7.88;;;;;;;19.95;100.00;100576.09;5035623;28;20049;-79
2023/07/28 09:52:41;;;;;;;17.48;7.70;;;;;;;19.92;100.00;100572.88;5024233;28;20504;-77
2023/07/28 09:55:11;;;;;;;18.55;7.28;;;;;;;19.91;100.00;100577.47;5027587;28;20044;-78
2023/07/28 09:57:41;;;;;;;19.02;7.80;;;;;;;19.90;100.00;100582.09;5025662;28;20025;-78
2023/07/28 10:00:10;;;;;;;19.02;7.68;;;;;;;19.90;100.00;100583.97;5035869;28;20033;-76
2023/07/28 10:02:36;;;;;;;16.42;6.25;;;;;;;19.91;100.00;100582.91;5038536;28;20033;-77
2023/07/28 10:05:02;;;;;;;16.40;5.78;;;;;;;19.93;100.00;100583.59;5041206;28;20077;-77
2023/07/28 10:07:28;;;;;;;14.20;5.72;;;;;;;19.94;100.00;100581.72;5045423;28;20053;-76
2023/07/28 10:09:54;;;;;;;16.30;6.25;;;;;;;19.97;100.00;100584.09;5041934;28;20061;-77
2023/07/28 10:12:26;;;;;;;15.98;5.80;;;;;;;19.99;100.00;100585.59;5042019;28;20048;-76
2023/07/28 10:15:03;;;;;;;15.30;5.45;;;;;;;20.04;100.00;100591.34;5043522;28;20029;-77
2023/07/28 10:17:34;;;;;;;16.40;6.45;;;;;;;20.11;100.00;100583.31;5043075;28;20103;-76
2023/07/28 10:20:20;;;;;;;16.13;6.05;;;;;;;20.12;100.00;100593.19;5032633;28;20033;-77
2023/07/28 10:22:45;;;;;;;13.57;5.57;;;;;;;20.18;100.00;100597.09;5039848;28;20052;-77
2023/07/28 10:25:10;;;;;;;14.40;5.40;;;;;;;20.26;100.00;100591.53;5040816;28;20029;-77
2023/07/28 10:27:45;;;;;;;15.88;6.07;;;;;;;20.33;100.00;100588.94;5038119;28;20477;-76
2023/07/28 10:30:12;;;;;;;15.25;5.75;;;;;;;20.35;100.00;100592.31;5033018;28;20037;-76
2023/07/28 10:32:43;;;;;;;13.50;5.18;;;;;;;20.36;100.00;100592.13;5040599;28;20036;-77
2023/07/28 10:35:22;;;;;;;14.73;5.22;;;;;;;20.43;100.00;100595.00;5040393;28;20484;-77
2023/07/28 10:37:48;;;;;;;12.10;4.35;;;;;;;20.50;100.00;100586.91;5037965;28;20033;-76
2023/07/28 10:40:23;;;;;;;10.15;3.72;;;;;;;20.57;100.00;100594.19;5038387;28;20029;-76
2023/07/28 10:42:49;;;;;;;11.93;3.78;;;;;;;20.59;100.00;100589.38;5037401;28;20026;-76
2023/07/28 10:45:15;;;;;;;10.35;3.70;;;;;;;20.64;100.00;100594.28;5036938;28;20032;-77
2023/07/28 10:47:41;;;;;;;9.55;4.22;;;;;;;20.65;100.00;100590.53;5037921;28;20033;-77
2023/07/28 10:50:09;;;;;;;10.80;4.22;;;;;;;20.70;100.00;100587.28;5037704;28;20033;-76
2023/07/28 10:52:39;;;;;;;12.88;4.70;;;;;;;20.76;100.00;100584.66;5036995;28;20033;-76
2023/07/28 10:55:04;;;;;;;11.32;4.13;;;;;;;20.82;100.00;100587.66;5038206;28;20508;-77
2023/07/28 10:57:30;;;;;;;10.63;3.85;;;;;;;20.86;100.00;100581.63;5036252;28;20230;-77
2023/07/28 11:00:00;;;;;;;14.50;4.68;;;;;;;20.91;100.00;100576.47;5030334;28;20057;-77